Time;durP1;ratioP1;P1;durP2;ratioP2;P2;SDS_P1;SDS_P2;PMS_P1;PMS_P2;Temp;Humidity;BMP_temperature;BMP_pressure;BME280_temperature;BME280_humidity;BME280_pressure;Samples;Min_cycle;Max_cycle;Signal;HPM_P1;HPM_P2
2023/05/08 00:00:41;;;;;;;;;;;10.20;99.90;;;;;;5092561;28;20384;-90
2023/05/08 00:03:06;;;;;;;;;;;10.20;99.90;;;;;;5091807;28;20395;-89
2023/05/08 00:05:32;;;;;;;;;;;10.10;99.90;;;;;;5092413;28;19908;-90
2023/05/08 00:08:00;;;;;;;;;;;10.20;99.90;;;;;;5092783;28;19908;-87
2023/05/08 00:10:26;;;;;;;;;;;10.10;99.90;;;;;;5091415;28;19947;-87
2023/05/08 00:12:51;;;;;;;;;;;10.10;99.90;;;;;;5092350;28;19904;-88
2023/05/08 00:15:17;;;;;;;;;;;10.20;99.90;;;;;;5093323;28;19908;-88
2023/05/08 00:17:42;;;;;;;;;;;10.20;99.90;;;;;;5091712;28;19908;-89
2023/05/08 00:20:08;;;;;;;;;;;10.20;99.90;;;;;;5091600;28;19927;-89
2023/05/08 00:22:37;;;;;;;;;;;10.20;99.90;;;;;;5092323;28;19946;-87
2023/05/08 00:25:04;;;;;;;;;;;10.10;99.90;;;;;;5091763;28;19931;-87
2023/05/08 00:27:30;;;;;;;;;;;10.10;99.90;;;;;;5092205;28;20464;-89
2023/05/08 00:29:56;;;;;;;;;;;10.10;99.90;;;;;;5092173;28;20444;-88
2023/05/08 00:32:22;;;;;;;;;;;10.10;99.90;;;;;;5090394;28;19912;-88
2023/05/08 00:34:48;;;;;;;;;;;10.10;99.90;;;;;;5092600;28;19904;-89
2023/05/08 00:37:13;;;;;;;;;;;10.00;99.90;;;;;;5091036;28;19904;-90
2023/05/08 00:39:39;;;;;;;;;;;10.00;99.90;;;;;;5092309;28;19919;-86
2023/05/08 00:42:04;;;;;;;;;;;10.00;99.90;;;;;;5092591;28;19918;-86
2023/05/08 00:44:30;;;;;;;;;;;10.00;99.90;;;;;;5092100;28;20367;-86
2023/05/08 00:46:55;;;;;;;;;;;9.90;99.90;;;;;;5093543;28;20334;-86
2023/05/08 00:49:21;;;;;;;;;;;9.90;99.90;;;;;;5092323;28;19911;-86
2023/05/08 00:51:49;;;;;;;;;;;9.90;99.90;;;;;;5091791;28;19950;-86
2023/05/08 00:54:15;;;;;;;;;;;9.90;99.90;;;;;;5092060;28;19908;-86
2023/05/08 00:56:41;;;;;;;;;;;9.80;99.90;;;;;;5092035;28;19943;-86
2023/05/08 00:59:09;;;;;;;;;;;9.80;99.90;;;;;;5091880;28;19904;-84
2023/05/08 01:01:35;;;;;;;;;;;9.80;99.90;;;;;;5091589;28;19995;-86
2023/05/08 01:04:02;;;;;;;;;;;9.80;99.90;;;;;;5091983;28;20346;-86
2023/05/08 01:06:28;;;;;;;;;;;9.70;99.90;;;;;;5091709;28;19904;-85
2023/05/08 01:08:53;;;;;;;;;;;9.70;99.90;;;;;;5092966;28;20450;-86
2023/05/08 01:11:32;;;;;;;;;;;9.70;99.90;;;;;;5090615;28;19904;-84
2023/05/08 01:14:17;;;;;;;;;;;9.80;99.90;;;;;;5091778;28;19911;-85
2023/05/08 01:16:42;;;;;;;;;;;9.70;99.90;;;;;;5091371;28;19908;-85
2023/05/08 01:19:11;;;;;;;;;;;9.70;99.90;;;;;;5091137;28;20273;-86
2023/05/08 01:21:49;;;;;;;;;;;9.70;99.90;;;;;;5091687;28;19965;-86
2023/05/08 01:24:17;;;;;;;;;;;9.70;99.90;;;;;;5091780;28;19914;-85
2023/05/08 01:27:12;;;;;;;;;;;9.70;99.90;;;;;;5090801;28;19956;-85
2023/05/08 01:29:43;;;;;;;;;;;9.60;99.90;;;;;;5090382;28;19904;-86
2023/05/08 01:32:21;;;;;;;;;;;9.60;99.90;;;;;;5089036;28;19908;-86
2023/05/08 01:35:06;;;;;;;;;;;9.50;99.90;;;;;;5090690;28;19904;-86
2023/05/08 01:37:41;;;;;;;;;;;9.50;99.90;;;;;;5091587;28;20272;-86
2023/05/08 01:40:10;;;;;;;;;;;9.50;99.90;;;;;;5092362;28;19919;-85
2023/05/08 01:42:54;;;;;;;;;;;9.40;99.90;;;;;;5091423;28;19908;-84
2023/05/08 01:45:22;;;;;;;;;;;9.40;99.90;;;;;;5094263;28;20002;-84
2023/05/08 01:47:50;;;;;;;;;;;9.30;99.90;;;;;;5094630;28;20285;-85
2023/05/08 01:50:25;;;;;;;;;;;9.30;99.90;;;;;;5094122;28;19929;-85
2023/05/08 01:52:53;;;;;;;;;;;9.20;99.90;;;;;;5094448;28;19904;-84
2023/05/08 01:55:20;;;;;;;;;;;9.10;99.90;;;;;;5094567;28;19904;-86
2023/05/08 01:57:47;;;;;;;;;;;9.10;99.90;;;;;;5095771;28;19908;-86
2023/05/08 02:00:13;;;;;;;;;;;9.10;99.90;;;;;;5094434;28;19908;-85
2023/05/08 02:02:39;;;;;;;;;;;9.10;99.90;;;;;;5095303;28;20431;-85
2023/05/08 02:05:06;;;;;;;;;;;9.00;99.90;;;;;;5095554;28;19908;-85
2023/05/08 02:07:34;;;;;;;;;;;9.10;99.90;;;;;;5095745;28;19904;-85
2023/05/08 02:10:01;;;;;;;;;;;9.00;99.90;;;;;;5094455;28;19904;-86
2023/05/08 02:12:26;;;;;;;;;;;9.10;99.90;;;;;;5095235;28;19911;-85
2023/05/08 02:14:52;;;;;;;;;;;9.00;99.90;;;;;;5094833;28;19904;-85
2023/05/08 02:17:18;;;;;;;;;;;8.90;99.90;;;;;;5094363;28;20360;-85
2023/05/08 02:19:44;;;;;;;;;;;8.80;99.90;;;;;;5095087;28;20319;-85
2023/05/08 02:22:10;;;;;;;;;;;8.80;99.90;;;;;;5094491;28;20402;-85
2023/05/08 02:24:37;;;;;;;;;;;8.80;99.90;;;;;;5092644;28;19904;-85
2023/05/08 02:27:03;;;;;;;;;;;8.70;99.90;;;;;;5094190;28;19907;-84
2023/05/08 02:29:29;;;;;;;;;;;8.70;99.90;;;;;;5093356;28;19953;-85
2023/05/08 02:31:55;;;;;;;;;;;8.70;99.90;;;;;;5094312;28;19911;-85
2023/05/08 02:34:22;;;;;;;;;;;8.80;99.90;;;;;;5095326;28;19904;-86
2023/05/08 02:36:49;;;;;;;;;;;8.80;99.90;;;;;;5093935;28;19938;-85
2023/05/08 02:39:16;;;;;;;;;;;8.70;99.90;;;;;;5093813;28;20308;-85
2023/05/08 02:41:42;;;;;;;;;;;8.70;99.90;;;;;;5094013;28;19957;-85
2023/05/08 02:44:08;;;;;;;;;;;8.70;99.90;;;;;;5093676;28;19912;-86
2023/05/08 02:46:39;;;;;;;;;;;8.70;99.90;;;;;;5093826;28;19951;-86
2023/05/08 02:49:15;;;;;;;;;;;8.70;99.90;;;;;;5094010;28;20384;-85
2023/05/08 02:51:41;;;;;;;;;;;8.70;99.90;;;;;;5093973;28;19904;-86
2023/05/08 02:54:09;;;;;;;;;;;8.80;99.90;;;;;;5093661;28;20269;-86
2023/05/08 02:56:52;;;;;;;;;;;8.70;99.90;;;;;;5093770;28;19904;-85
2023/05/08 02:59:21;;;;;;;;;;;8.70;99.90;;;;;;5094762;28;20524;-86
2023/05/08 03:01:51;;;;;;;;;;;8.60;99.90;;;;;;5093672;28;19904;-85
2023/05/08 03:04:25;;;;;;;;;;;8.60;99.90;;;;;;5093635;28;19904;-85
2023/05/08 03:06:52;;;;;;;;;;;8.50;99.90;;;;;;5093566;28;19911;-85
2023/05/08 03:09:19;;;;;;;;;;;8.60;99.90;;;;;;5093669;28;19904;-86
2023/05/08 03:11:47;;;;;;;;;;;8.60;99.90;;;;;;5093341;28;19904;-84
2023/05/08 03:14:14;;;;;;;;;;;8.60;99.90;;;;;;5092063;28;20303;-86
2023/05/08 03:16:41;;;;;;;;;;;8.70;99.90;;;;;;5093275;28;19910;-85
2023/05/08 03:19:13;;;;;;;;;;;8.70;99.90;;;;;;5092756;28;19922;-85
2023/05/08 03:21:39;;;;;;;;;;;8.80;99.90;;;;;;5094334;28;20411;-85
2023/05/08 03:24:06;;;;;;;;;;;8.80;99.90;;;;;;5092910;28;19912;-86
2023/05/08 03:26:32;;;;;;;;;;;8.90;99.90;;;;;;5094060;28;20376;-85
2023/05/08 03:28:57;;;;;;;;;;;8.90;99.90;;;;;;5092651;28;19908;-85
2023/05/08 03:31:24;;;;;;;;;;;8.80;99.90;;;;;;5093007;28;19939;-86
2023/05/08 03:33:52;;;;;;;;;;;8.80;99.90;;;;;;5092969;28;19904;-85
2023/05/08 03:36:17;;;;;;;;;;;8.80;99.90;;;;;;5092965;28;19964;-86
2023/05/08 03:38:43;;;;;;;;;;;8.70;99.90;;;;;;5092981;28;19908;-86
2023/05/08 03:41:09;;;;;;;;;;;8.80;99.90;;;;;;5092667;28;19912;-86
2023/05/08 03:43:36;;;;;;;;;;;8.80;99.90;;;;;;5092803;28;19911;-86
2023/05/08 03:46:03;;;;;;;;;;;8.80;99.90;;;;;;5093036;28;20253;-85
2023/05/08 03:48:31;;;;;;;;;;;8.70;99.90;;;;;;5092769;28;19904;-86
2023/05/08 03:50:57;;;;;;;;;;;8.70;99.90;;;;;;5094532;28;19904;-86
2023/05/08 03:53:22;;;;;;;;;;;8.80;99.90;;;;;;5092728;28;20382;-86
2023/05/08 03:55:48;;;;;;;;;;;9.00;99.90;;;;;;5091432;28;20030;-86
2023/05/08 03:58:17;;;;;;;;;;;9.20;99.90;;;;;;5089560;28;19914;-86
2023/05/08 04:00:49;;;;;;;;;;;9.30;99.90;;;;;;5091921;28;19912;-86
2023/05/08 04:03:21;;;;;;;;;;;9.40;99.90;;;;;;5092565;28;20022;-86
2023/05/08 04:06:13;;;;;;;;;;;9.60;99.90;;;;;;5091141;28;19958;-86
2023/05/08 04:08:42;;;;;;;;;;;9.70;99.90;;;;;;5088669;28;19904;-85
2023/05/08 04:11:10;;;;;;;;;;;10.10;99.90;;;;;;5091167;28;19903;-83
2023/05/08 04:13:40;;;;;;;;;;;10.30;99.90;;;;;;5092288;28;19908;-85
2023/05/08 04:16:08;;;;;;;;;;;10.60;99.90;;;;;;5091689;28;19908;-85
2023/05/08 04:18:37;;;;;;;;;;;10.60;99.90;;;;;;5091411;28;19912;-85
2023/05/08 04:21:05;;;;;;;;;;;10.70;99.90;;;;;;5091979;28;19920;-86
2023/05/08 04:23:31;;;;;;;;;;;10.70;99.90;;;;;;5091952;28;19908;-85
2023/05/08 04:25:58;;;;;;;;;;;10.60;99.90;;;;;;5090504;28;20065;-87
2023/05/08 04:28:23;;;;;;;;;;;10.60;99.90;;;;;;5089478;28;19904;-86
2023/05/08 04:30:50;;;;;;;;;;;10.60;96.50;;;;;;5092007;28;19904;-85
2023/05/08 04:33:17;;;;;;;;;;;10.60;97.70;;;;;;5090574;28;20253;-86
2023/05/08 04:35:44;;;;;;;;;;;10.50;98.80;;;;;;5089970;28;19966;-84
2023/05/08 04:38:10;;;;;;;;;;;10.50;98.30;;;;;;5089657;28;19946;-86
2023/05/08 04:40:35;;;;;;;;;;;10.60;98.40;;;;;;5089928;28;19908;-85
2023/05/08 04:43:01;;;;;;;;;;;10.80;97.90;;;;;;5091645;28;19941;-85
2023/05/08 04:45:27;;;;;;;;;;;10.90;96.70;;;;;;5090560;28;19961;-86
2023/05/08 04:47:52;;;;;;;;;;;11.20;93.20;;;;;;5091560;28;19904;-86
2023/05/08 04:50:18;;;;;;;;;;;11.30;91.80;;;;;;5090972;28;19962;-84
2023/05/08 04:52:43;;;;;;;;;;;11.20;92.30;;;;;;5089026;28;20011;-86
2023/05/08 04:55:09;;;;;;;;;;;11.20;91.80;;;;;;5091164;28;19904;-85
2023/05/08 04:57:34;;;;;;;;;;;11.10;92.70;;;;;;5091360;28;19908;-85
2023/05/08 05:00:00;;;;;;;;;;;11.00;92.30;;;;;;5091315;28;19997;-86
2023/05/08 05:02:26;;;;;;;;;;;10.90;91.10;;;;;;5090575;28;19908;-86
2023/05/08 05:04:51;;;;;;;;;;;10.90;90.70;;;;;;5088945;28;19995;-86
2023/05/08 05:07:16;;;;;;;;;;;10.80;90.90;;;;;;5090433;28;19927;-85
2023/05/08 05:09:42;;;;;;;;;;;10.80;90.80;;;;;;5088859;28;19912;-85
2023/05/08 05:12:08;;;;;;;;;;;10.70;91.00;;;;;;5090481;28;20006;-85
2023/05/08 05:14:33;;;;;;;;;;;10.80;92.10;;;;;;5091895;28;19994;-85
2023/05/08 05:16:59;;;;;;;;;;;10.80;91.30;;;;;;5091314;28;19911;-84
2023/05/08 05:19:24;;;;;;;;;;;10.80;91.30;;;;;;5091447;28;19916;-85
2023/05/08 05:21:50;;;;;;;;;;;10.80;91.30;;;;;;5093061;28;19912;-85
2023/05/08 05:24:15;;;;;;;;;;;10.70;91.20;;;;;;5094007;28;19911;-86
2023/05/08 05:26:41;;;;;;;;;;;10.60;93.10;;;;;;5093119;28;19908;-85
2023/05/08 05:29:06;;;;;;;;;;;10.70;92.50;;;;;;5093855;28;19910;-85
2023/05/08 05:31:32;;;;;;;;;;;10.70;92.70;;;;;;5093573;28;19947;-86
2023/05/08 05:33:57;;;;;;;;;;;10.70;93.30;;;;;;5092870;28;20010;-85
2023/05/08 05:36:23;;;;;;;;;;;10.70;91.70;;;;;;5092765;28;19911;-86
2023/05/08 05:38:48;;;;;;;;;;;10.60;92.90;;;;;;5093744;28;19947;-85
2023/05/08 05:41:14;;;;;;;;;;;10.90;92.20;;;;;;5092647;28;19919;-85
2023/05/08 05:43:40;;;;;;;;;;;11.30;91.00;;;;;;5092613;28;19904;-86
2023/05/08 05:46:06;;;;;;;;;;;11.50;87.10;;;;;;5092789;28;19908;-85
2023/05/08 05:48:31;;;;;;;;;;;11.80;86.50;;;;;;5092761;28;19911;-86
2023/05/08 05:50:57;;;;;;;;;;;12.10;84.60;;;;;;5093179;28;20364;-85
2023/05/08 05:53:22;;;;;;;;;;;11.90;83.80;;;;;;5092450;28;20359;-84
2023/05/08 05:55:48;;;;;;;;;;;12.10;80.60;;;;;;5093238;28;19904;-86
2023/05/08 05:58:15;;;;;;;;;;;12.10;81.50;;;;;;5092877;28;19961;-85
2023/05/08 06:00:41;;;;;;;;;;;12.60;78.70;;;;;;5092794;28;19912;-85
2023/05/08 06:03:07;;;;;;;;;;;13.30;74.30;;;;;;5092542;28;19908;-86
2023/05/08 06:05:32;;;;;;;;;;;14.50;69.00;;;;;;5093361;28;20380;-87
2023/05/08 06:07:58;;;;;;;;;;;15.20;61.20;;;;;;5093292;28;19914;-85
2023/05/08 06:10:23;;;;;;;;;;;16.00;58.10;;;;;;5093263;28;19931;-86
2023/05/08 06:12:49;;;;;;;;;;;17.00;54.40;;;;;;5092348;28;20253;-86
2023/05/08 06:15:14;;;;;;;;;;;18.60;49.80;;;;;;5092607;28;19982;-86
2023/05/08 06:17:40;;;;;;;;;;;19.40;42.70;;;;;;5093512;28;19904;-87
2023/05/08 06:20:07;;;;;;;;;;;20.00;38.50;;;;;;5092604;28;19927;-86
2023/05/08 06:22:32;;;;;;;;;;;20.40;36.10;;;;;;5091102;28;20317;-85
2023/05/08 06:24:58;;;;;;;;;;;21.10;34.40;;;;;;5092418;28;19904;-86
2023/05/08 06:27:24;;;;;;;;;;;21.50;32.90;;;;;;5091873;28;20369;-85
2023/05/08 06:29:51;;;;;;;;;;;21.50;32.20;;;;;;5092217;28;19916;-87
2023/05/08 06:32:17;;;;;;;;;;;21.50;31.30;;;;;;5092641;28;19908;-86
2023/05/08 06:34:43;;;;;;;;;;;21.70;30.50;;;;;;5091455;28;19931;-88
2023/05/08 06:37:08;;;;;;;;;;;21.60;30.20;;;;;;5091483;28;19912;-87
2023/05/08 06:39:34;;;;;;;;;;;21.50;30.30;;;;;;5091835;28;20006;-87
2023/05/08 06:41:59;;;;;;;;;;;21.80;29.80;;;;;;5091592;28;19980;-88
2023/05/08 06:44:25;;;;;;;;;;;21.60;29.80;;;;;;5091892;28;20419;-86
2023/05/08 06:46:50;;;;;;;;;;;21.50;30.10;;;;;;5091588;28;20418;-89
2023/05/08 06:49:16;;;;;;;;;;;21.70;29.20;;;;;;5091496;28;19908;-87
2023/05/08 06:51:41;;;;;;;;;;;22.10;29.80;;;;;;5091522;28;19970;-87
2023/05/08 06:54:07;;;;;;;;;;;22.50;29.20;;;;;;5091261;28;19908;-88
2023/05/08 06:56:33;;;;;;;;;;;22.20;28.70;;;;;;5092361;28;20018;-86
2023/05/08 06:58:59;;;;;;;;;;;22.10;29.50;;;;;;5094413;28;19946;-85
2023/05/08 07:01:24;;;;;;;;;;;22.40;29.90;;;;;;5094113;28;19919;-84
2023/05/08 07:03:50;;;;;;;;;;;22.30;28.70;;;;;;5093686;28;19908;-86
2023/05/08 07:06:16;;;;;;;;;;;22.60;28.80;;;;;;5091627;28;20003;-86
2023/05/08 07:08:41;;;;;;;;;;;22.50;28.40;;;;;;5092922;28;20329;-86
2023/05/08 07:11:08;;;;;;;;;;;23.00;27.90;;;;;;5091024;28;19951;-86
2023/05/08 07:13:35;;;;;;;;;;;23.40;27.70;;;;;;5091367;28;19908;-86
2023/05/08 07:16:00;;;;;;;;;;;23.10;27.10;;;;;;5092920;28;19904;-85
2023/05/08 07:18:26;;;;;;;;;;;22.50;27.90;;;;;;5093958;28;19911;-85
2023/05/08 07:20:51;;;;;;;;;;;22.50;28.00;;;;;;5090944;28;19994;-86
2023/05/08 07:23:17;;;;;;;;;;;22.70;27.90;;;;;;5093166;28;19947;-86
2023/05/08 07:25:43;;;;;;;;;;;22.80;27.60;;;;;;5091187;28;20376;-85
2023/05/08 07:28:08;;;;;;;;;;;23.00;27.80;;;;;;5090425;28;19914;-86
2023/05/08 07:30:34;;;;;;;;;;;22.80;27.30;;;;;;5092543;28;19943;-85
2023/05/08 07:33:00;;;;;;;;;;;22.60;27.50;;;;;;5090315;28;19969;-85
2023/05/08 07:35:26;;;;;;;;;;;22.80;27.60;;;;;;5091198;28;19991;-85
2023/05/08 07:37:51;;;;;;;;;;;23.00;27.40;;;;;;5091036;28;19904;-85
2023/05/08 07:40:17;;;;;;;;;;;22.50;27.40;;;;;;5090305;28;20453;-86
2023/05/08 07:42:43;;;;;;;;;;;22.40;28.60;;;;;;5089881;28;19934;-86
2023/05/08 07:45:10;;;;;;;;;;;22.30;29.10;;;;;;5090188;28;20292;-85
2023/05/08 07:47:36;;;;;;;;;;;22.70;28.10;;;;;;5090748;28;19904;-86
2023/05/08 07:50:02;;;;;;;;;;;22.80;28.50;;;;;;5090212;28;19910;-85
2023/05/08 07:52:28;;;;;;;;;;;22.80;28.00;;;;;;5089814;28;19998;-85
2023/05/08 07:54:53;;;;;;;;;;;22.90;27.80;;;;;;5090055;28;20378;-85
2023/05/08 07:57:19;;;;;;;;;;;23.00;28.10;;;;;;5091099;28;19905;-86
2023/05/08 07:59:44;;;;;;;;;;;23.50;26.80;;;;;;5089874;28;19912;-85
2023/05/08 08:02:10;;;;;;;;;;;23.50;27.80;;;;;;5091270;28;19912;-86
2023/05/08 08:04:35;;;;;;;;;;;23.50;27.00;;;;;;5090299;28;19912;-84
2023/05/08 08:07:01;;;;;;;;;;;23.80;26.90;;;;;;5089611;28;19956;-85
2023/05/08 08:09:26;;;;;;;;;;;23.60;26.20;;;;;;5090385;28;19990;-85
2023/05/08 08:11:52;;;;;;;;;;;23.50;26.70;;;;;;5090034;28;19904;-85
2023/05/08 08:14:17;;;;;;;;;;;23.40;27.10;;;;;;5089922;28;19908;-86
2023/05/08 08:16:43;;;;;;;;;;;23.30;26.80;;;;;;5089492;28;19912;-84
2023/05/08 08:19:09;;;;;;;;;;;23.00;27.70;;;;;;5089632;28;20269;-84
2023/05/08 08:21:35;;;;;;;;;;;23.00;28.00;;;;;;5089309;28;19912;-84
2023/05/08 08:24:01;;;;;;;;;;;23.30;26.90;;;;;;5089742;28;19990;-83
2023/05/08 08:26:26;;;;;;;;;;;23.10;26.70;;;;;;5089277;28;19908;-86
2023/05/08 08:28:52;;;;;;;;;;;22.50;28.40;;;;;;5089686;28;20307;-85
2023/05/08 08:31:18;;;;;;;;;;;22.90;28.10;;;;;;5091494;28;19930;-84
2023/05/08 08:33:44;;;;;;;;;;;22.40;27.90;;;;;;5089994;28;19920;-84
2023/05/08 08:36:13;;;;;;;;;;;23.00;28.60;;;;;;5089151;28;19936;-85
2023/05/08 08:38:39;;;;;;;;;;;23.10;27.50;;;;;;5089303;28;19911;-84
2023/05/08 08:41:04;;;;;;;;;;;23.10;27.30;;;;;;5089863;28;19912;-84
2023/05/08 08:43:30;;;;;;;;;;;23.00;28.60;;;;;;5089597;28;19950;-86
2023/05/08 08:45:58;;;;;;;;;;;23.30;27.30;;;;;;5090488;28;19969;-84
2023/05/08 08:48:26;;;;;;;;;;;23.40;26.80;;;;;;5090138;28;19908;-84
2023/05/08 08:50:57;;;;;;;;;;;22.90;27.20;;;;;;5088678;28;19924;-84
2023/05/08 08:53:25;;;;;;;;;;;22.50;28.50;;;;;;5092357;28;20402;-85
2023/05/08 08:55:52;;;;;;;;;;;22.70;29.40;;;;;;5093579;28;20015;-84
2023/05/08 08:58:18;;;;;;;;;;;23.10;27.60;;;;;;5093194;28;19908;-85
2023/05/08 09:00:44;;;;;;;;;;;22.90;27.20;;;;;;5093053;28;19999;-84
2023/05/08 09:03:09;;;;;;;;;;;22.80;26.70;;;;;;5092827;28;19943;-84
2023/05/08 09:05:35;;;;;;;;;;;22.70;26.80;;;;;;5093208;28;19943;-87
2023/05/08 09:08:01;;;;;;;;;;;22.10;27.50;;;;;;5094041;28;19908;-86
2023/05/08 09:10:27;;;;;;;;;;;22.10;28.10;;;;;;5093139;28;20367;-87
2023/05/08 09:12:52;;;;;;;;;;;22.20;28.50;;;;;;5094008;28;19912;-86
2023/05/08 09:15:18;;;;;;;;;;;22.40;26.90;;;;;;5093822;28;20288;-85
2023/05/08 09:17:44;;;;;;;;;;;22.20;28.00;;;;;;5092596;28;19908;-88
2023/05/08 09:20:10;;;;;;;;;;;22.40;28.00;;;;;;5092648;28;19976;-85
2023/05/08 09:22:35;;;;;;;;;;;22.60;27.30;;;;;;5091956;28;19950;-86
2023/05/08 09:25:02;;;;;;;;;;;22.80;27.60;;;;;;5092882;28;19915;-87
2023/05/08 09:27:28;;;;;;;;;;;22.80;26.00;;;;;;5092701;28;19912;-87
2023/05/08 09:29:57;;;;;;;;;;;22.60;26.70;;;;;;5092896;28;20356;-86
2023/05/08 09:32:23;;;;;;;;;;;22.60;26.80;;;;;;5093959;28;19907;-86
2023/05/08 09:34:52;;;;;;;;;;;22.90;27.20;;;;;;5092820;28;19911;-86
2023/05/08 09:37:18;;;;;;;;;;;23.10;26.40;;;;;;5094106;28;19904;-86
2023/05/08 09:39:46;;;;;;;;;;;23.30;27.10;;;;;;5092331;28;19915;-86
2023/05/08 09:42:15;;;;;;;;;;;23.60;26.00;;;;;;5093800;28;19977;-87
2023/05/08 09:44:51;;;;;;;;;;;23.50;25.90;;;;;;5092188;28;19919;-86
2023/05/08 09:47:19;;;;;;;;;;;23.40;26.50;;;;;;5092397;28;19912;-84
2023/05/08 09:49:57;;;;;;;;;;;23.00;26.00;;;;;;5092449;28;19998;-84
2023/05/08 09:52:23;;;;;;;;;;;22.40;26.40;;;;;;5092234;28;19957;-85
2023/05/08 09:54:58;;;;;;;;;;;22.30;26.90;;;;;;5092135;28;19954;-85
2023/05/08 09:57:28;;;;;;;;;;;22.40;27.70;;;;;;5092269;28;19989;-83
2023/05/08 10:00:05;;;;;;;;;;;22.20;28.00;;;;;;5092155;28;19987;-84
2023/05/08 10:02:31;;;;;;;;;;;21.60;27.40;;;;;;5091875;28;19943;-82
2023/05/08 10:04:56;;;;;;;;;;;21.40;27.80;;;;;;5091209;28;19912;-83
2023/05/08 10:07:32;;;;;;;;;;;21.20;28.60;;;;;;5094266;28;19916;-82
2023/05/08 10:09:59;;;;;;;;;;;21.20;28.90;;;;;;5092091;28;19907;-84
2023/05/08 10:12:25;;;;;;;;;;;20.80;28.10;;;;;;5091733;28;19904;-83
2023/05/08 10:14:50;;;;;;;;;;;20.30;29.20;;;;;;5092275;28;19915;-83
2023/05/08 10:17:18;;;;;;;;;;;19.80;29.40;;;;;;5091949;28;20325;-84
2023/05/08 10:19:44;;;;;;;;;;;19.60;30.50;;;;;;5092202;28;19919;-85
2023/05/08 10:22:11;;;;;;;;;;;19.60;31.10;;;;;;5092232;28;19946;-85
2023/05/08 10:24:39;;;;;;;;;;;19.50;31.80;;;;;;5092041;28;20556;-82
2023/05/08 10:27:19;;;;;;;;;;;19.50;30.00;;;;;;5092176;28;19908;-83
2023/05/08 10:29:52;;;;;;;;;;;19.10;31.40;;;;;;5092104;28;20361;-84
2023/05/08 10:32:18;;;;;;;;;;;18.80;32.00;;;;;;5091855;28;19908;-83
2023/05/08 10:34:45;;;;;;;;;;;18.70;32.70;;;;;;5091556;28;19907;-84
2023/05/08 10:37:11;;;;;;;;;;;18.60;32.80;;;;;;5092657;28;19922;-85
2023/05/08 10:39:37;;;;;;;;;;;18.50;33.30;;;;;;5091859;28;20287;-83
2023/05/08 10:42:03;;;;;;;;;;;18.40;33.30;;;;;;5091731;28;19915;-84
2023/05/08 10:44:29;;;;;;;;;;;18.50;34.20;;;;;;5091604;28;19904;-83
2023/05/08 10:47:11;;;;;;;;;;;18.50;33.80;;;;;;5091581;28;19912;-82
2023/05/08 10:49:55;;;;;;;;;;;18.60;32.60;;;;;;5092784;28;19947;-82
2023/05/08 10:52:32;;;;;;;;;;;18.40;33.60;;;;;;5092289;28;19908;-85
2023/05/08 10:55:03;;;;;;;;;;;18.50;34.10;;;;;;5091017;28;19998;-84
2023/05/08 10:57:29;;;;;;;;;;;18.50;33.40;;;;;;5091042;28;19908;-83
2023/05/08 10:59:54;;;;;;;;;;;18.40;33.40;;;;;;5091110;28;20349;-83
2023/05/08 11:02:31;;;;;;;;;;;18.50;32.70;;;;;;5090814;28;19958;-84
2023/05/08 11:05:15;;;;;;;;;;;18.40;33.20;;;;;;5091016;28;19908;-82
2023/05/08 11:07:55;;;;;;;;;;;18.20;32.90;;;;;;5091158;28;19908;-83
2023/05/08 11:10:20;;;;;;;;;;;18.10;34.60;;;;;;5090800;28;19904;-83
2023/05/08 11:12:48;;;;;;;;;;;18.20;35.80;;;;;;5091961;28;20406;-84
2023/05/08 11:15:14;;;;;;;;;;;18.40;35.20;;;;;;5090742;28;19910;-84
2023/05/08 11:17:45;;;;;;;;;;;18.50;34.20;;;;;;5091167;28;19907;-84
2023/05/08 11:20:10;;;;;;;;;;;18.50;34.30;;;;;;5090747;28;19920;-84
2023/05/08 11:22:37;;;;;;;;;;;18.50;33.80;;;;;;5092170;28;19908;-84
2023/05/08 11:25:02;;;;;;;;;;;18.50;33.20;;;;;;5090833;28;19911;-84
2023/05/08 11:27:48;;;;;;;;;;;18.40;33.00;;;;;;5090952;28;19907;-83
2023/05/08 11:30:16;;;;;;;;;;;18.40;33.90;;;;;;5079873;28;19919;-84
2023/05/08 11:33:14;;;;;;;;;;;18.50;34.40;;;;;;5090866;28;19908;-82
2023/05/08 11:35:43;;;;;;;;;;;18.50;33.10;;;;;;5056728;28;19915;-84
2023/05/08 11:38:32;;;;;;;;;;;18.50;34.50;;;;;;5090687;28;19957;-84
2023/05/08 11:40:58;;;;;;;;;;;18.40;34.70;;;;;;5082037;28;20449;-84
2023/05/08 11:43:25;;;;;;;;;;;18.50;33.70;;;;;;5089881;28;19916;-83
2023/05/08 11:45:51;;;;;;;;;;;18.50;33.30;;;;;;5090059;28;19973;-84
2023/05/08 11:48:17;;;;;;;;;;;18.30;32.90;;;;;;5089873;28;19912;-82
2023/05/08 11:50:43;;;;;;;;;;;18.20;33.80;;;;;;5090767;28;20376;-84
2023/05/08 11:53:09;;;;;;;;;;;18.20;35.50;;;;;;5089968;28;19934;-85
2023/05/08 11:55:35;;;;;;;;;;;18.40;36.20;;;;;;5090187;28;19908;-84
2023/05/08 11:58:00;;;;;;;;;;;18.60;35.90;;;;;;5090292;28;19947;-84
2023/05/08 12:00:26;;;;;;;;;;;18.70;34.40;;;;;;5090209;28;20398;-83
2023/05/08 12:02:51;;;;;;;;;;;18.70;33.90;;;;;;5090824;28;20360;-84
2023/05/08 12:05:25;;;;;;;;;;;18.70;33.90;;;;;;5089931;28;19915;-84
2023/05/08 12:07:50;;;;;;;;;;;18.80;34.20;;;;;;5090021;28;19943;-85
2023/05/08 12:10:16;;;;;;;;;;;18.80;32.10;;;;;;5091122;28;19962;-85
2023/05/08 12:12:42;;;;;;;;;;;18.70;33.00;;;;;;5090867;28;19927;-83
2023/05/08 12:15:09;;;;;;;;;;;18.50;31.60;;;;;;5089925;28;19914;-83
2023/05/08 12:17:35;;;;;;;;;;;18.50;31.90;;;;;;5089625;28;19908;-84
2023/05/08 12:20:20;;;;;;;;;;;18.40;33.00;;;;;;5090547;28;19985;-83
2023/05/08 12:22:51;;;;;;;;;;;18.50;33.00;;;;;;5089048;28;19962;-83
2023/05/08 12:25:16;;;;;;;;;;;18.50;32.90;;;;;;5089503;28;19939;-84
2023/05/08 12:27:42;;;;;;;;;;;18.30;33.30;;;;;;5089010;28;19951;-83
2023/05/08 12:30:09;;;;;;;;;;;18.40;33.80;;;;;;5089666;28;19978;-83
2023/05/08 12:32:39;;;;;;;;;;;18.40;33.50;;;;;;5090425;28;19904;-84
2023/05/08 12:35:08;;;;;;;;;;;18.40;34.70;;;;;;5090678;28;19931;-85
2023/05/08 12:37:35;;;;;;;;;;;18.50;35.40;;;;;;5089616;28;19904;-81
2023/05/08 12:40:01;;;;;;;;;;;18.70;34.70;;;;;;5089677;28;19915;-83
2023/05/08 12:42:47;;;;;;;;;;;18.60;33.40;;;;;;5089637;28;19954;-83
2023/05/08 12:45:32;;;;;;;;;;;18.50;33.40;;;;;;5089847;28;19904;-84
2023/05/08 12:47:59;;;;;;;;;;;18.30;32.70;;;;;;5090421;28;19908;-84
2023/05/08 12:50:24;;;;;;;;;;;18.30;34.30;;;;;;5089653;28;19904;-85
2023/05/08 12:52:50;;;;;;;;;;;18.30;34.30;;;;;;5090860;28;20368;-84
2023/05/08 12:55:22;;;;;;;;;;;18.30;34.70;;;;;;5089738;28;19961;-85
2023/05/08 12:58:08;;;;;;;;;;;18.50;35.10;;;;;;5089571;28;19912;-85
2023/05/08 13:00:36;;;;;;;;;;;18.70;33.10;;;;;;5095144;28;19935;-84
2023/05/08 13:03:01;;;;;;;;;;;18.50;33.70;;;;;;5091106;28;19908;-84
2023/05/08 13:05:27;;;;;;;;;;;18.40;35.70;;;;;;5089732;28;20380;-84
2023/05/08 13:07:57;;;;;;;;;;;18.50;36.20;;;;;;5089536;28;19904;-85
2023/05/08 13:10:23;;;;;;;;;;;18.40;33.90;;;;;;5089636;28;19911;-84
2023/05/08 13:12:48;;;;;;;;;;;18.30;35.50;;;;;;5089687;28;19934;-85
2023/05/08 13:15:14;;;;;;;;;;;18.20;33.70;;;;;;5089440;28;20002;-85
2023/05/08 13:17:39;;;;;;;;;;;18.30;34.40;;;;;;5089644;28;20002;-83
2023/05/08 13:20:05;;;;;;;;;;;18.30;35.50;;;;;;5089310;28;20367;-84
2023/05/08 13:22:31;;;;;;;;;;;18.40;35.20;;;;;;5089370;28;19966;-85
2023/05/08 13:24:56;;;;;;;;;;;18.30;34.80;;;;;;5089205;28;19957;-84
2023/05/08 13:27:22;;;;;;;;;;;18.40;35.30;;;;;;5089597;28;19935;-84
2023/05/08 13:29:47;;;;;;;;;;;18.40;34.50;;;;;;5089000;28;19947;-84
2023/05/08 13:32:13;;;;;;;;;;;18.30;35.00;;;;;;5090763;28;19908;-85
2023/05/08 13:34:38;;;;;;;;;;;18.30;35.10;;;;;;5090427;28;20331;-84
2023/05/08 13:37:05;;;;;;;;;;;18.30;34.50;;;;;;5088600;28;20006;-84
2023/05/08 13:39:35;;;;;;;;;;;18.20;34.20;;;;;;5089885;28;19912;-84
2023/05/08 13:42:01;;;;;;;;;;;18.00;34.70;;;;;;5094273;28;19915;-83
2023/05/08 13:44:26;;;;;;;;;;;17.90;35.50;;;;;;5092992;28;19908;-83
2023/05/08 13:46:52;;;;;;;;;;;17.90;36.20;;;;;;5094271;28;19931;-87
2023/05/08 13:49:18;;;;;;;;;;;18.00;35.90;;;;;;5092555;28;19965;-87
2023/05/08 13:51:44;;;;;;;;;;;18.00;36.10;;;;;;5092466;28;19955;-84
2023/05/08 13:54:10;;;;;;;;;;;17.90;35.60;;;;;;5091944;28;19915;-87
2023/05/08 13:56:35;;;;;;;;;;;17.90;35.20;;;;;;5092118;28;19908;-87
2023/05/08 13:59:01;;;;;;;;;;;17.70;36.00;;;;;;5092514;28;19907;-87
2023/05/08 14:01:27;;;;;;;;;;;17.80;36.00;;;;;;5093686;28;19912;-87
2023/05/08 14:03:53;;;;;;;;;;;17.50;36.10;;;;;;5092781;28;20300;-86
2023/05/08 14:06:19;;;;;;;;;;;17.70;37.10;;;;;;5092358;28;19911;-86
2023/05/08 14:08:46;;;;;;;;;;;17.50;36.70;;;;;;5092381;28;20304;-86
2023/05/08 14:11:11;;;;;;;;;;;17.60;36.50;;;;;;5092457;28;19938;-87
2023/05/08 14:13:37;;;;;;;;;;;17.50;36.90;;;;;;5094037;28;19904;-87
2023/05/08 14:16:04;;;;;;;;;;;17.70;36.40;;;;;;5092948;28;19908;-87
2023/05/08 14:18:30;;;;;;;;;;;17.70;37.40;;;;;;5091597;28;19904;-86
2023/05/08 14:20:55;;;;;;;;;;;17.80;36.90;;;;;;5091904;28;19924;-86
2023/05/08 14:23:21;;;;;;;;;;;17.70;35.80;;;;;;5092921;28;20288;-86